sensor_id;sensor_type;location;lat;lon;timestamp;pressure;altitude;pressure_sealevel;temperature;humidity
12799;BME280;19250;42.646;26.980;2023-02-02T00:00:29;98907.03;;;4.29;82.85
12799;BME280;19250;42.646;26.980;2023-02-02T00:02:57;98922.72;;;4.53;81.11
12799;BME280;19250;42.646;26.980;2023-02-02T00:05:24;98907.97;;;4.51;79.70
12799;BME280;19250;42.646;26.980;2023-02-02T00:07:52;98908.63;;;4.75;77.69
12799;BME280;19250;42.646;26.980;2023-02-02T00:10:19;98916.78;;;4.72;78.45
12799;BME280;19250;42.646;26.980;2023-02-02T00:12:47;98916.88;;;4.81;77.98
12799;BME280;19250;42.646;26.980;2023-02-02T00:15:15;98934.53;;;4.81;77.28
12799;BME280;19250;42.646;26.980;2023-02-02T00:17:42;98925.34;;;4.64;78.91
12799;BME280;19250;42.646;26.980;2023-02-02T00:20:09;98839.41;;;4.17;78.50
12799;BME280;19250;42.646;26.980;2023-02-02T00:22:37;98919.94;;;4.66;80.12
12799;BME280;19250;42.646;26.980;2023-02-02T00:25:05;98916.78;;;4.72;79.55
12799;BME280;19250;42.646;26.980;2023-02-02T00:27:32;98912.75;;;4.57;81.50
12799;BME280;19250;42.646;26.980;2023-02-02T00:30:00;98908.19;;;4.48;82.85
12799;BME280;19250;42.646;26.980;2023-02-02T00:32:28;98847.56;;;4.14;82.02
12799;BME280;19250;42.646;26.980;2023-02-02T00:34:55;98909.41;;;4.55;82.24
12799;BME280;19250;42.646;26.980;2023-02-02T00:37:22;98920.66;;;4.57;81.14
12799;BME280;19250;42.646;26.980;2023-02-02T00:39:49;98914.53;;;4.67;80.88
12799;BME280;19250;42.646;26.980;2023-02-02T00:42:16;98913.78;;;4.76;80.19
12799;BME280;19250;42.646;26.980;2023-02-02T00:44:44;98906.56;;;4.78;79.70
12799;BME280;19250;42.646;26.980;2023-02-02T00:47:30;98895.97;;;4.89;78.95
12799;BME280;19250;42.646;26.980;2023-02-02T00:49:57;98887.16;;;4.68;79.52
12799;BME280;19250;42.646;26.980;2023-02-02T00:52:24;98862.41;;;4.26;81.22
12799;BME280;19250;42.646;26.980;2023-02-02T00:54:51;98872.00;;;4.38;82.20
12799;BME280;19250;42.646;26.980;2023-02-02T00:57:19;98868.16;;;4.31;82.79
12799;BME280;19250;42.646;26.980;2023-02-02T00:59:46;98861.22;;;4.30;82.31
12799;BME280;19250;42.646;26.980;2023-02-02T01:02:13;98873.44;;;4.31;82.21
12799;BME280;19250;42.646;26.980;2023-02-02T01:04:42;98880.28;;;4.34;82.19
12799;BME280;19250;42.646;26.980;2023-02-02T01:07:09;98876.97;;;4.53;81.58
12799;BME280;19250;42.646;26.980;2023-02-02T01:09:36;98878.28;;;4.69;79.67
12799;BME280;19250;42.646;26.980;2023-02-02T01:12:04;98882.69;;;4.37;81.80
12799;BME280;19250;42.646;26.980;2023-02-02T01:14:31;98884.22;;;4.28;82.93
12799;BME280;19250;42.646;26.980;2023-02-02T01:16:58;98886.13;;;4.37;83.59
12799;BME280;19250;42.646;26.980;2023-02-02T01:19:25;98891.72;;;4.12;85.18
12799;BME280;19250;42.646;26.980;2023-02-02T01:21:54;98891.94;;;4.09;86.15
12799;BME280;19250;42.646;26.980;2023-02-02T01:24:21;98895.53;;;4.08;87.58
12799;BME280;19250;42.646;26.980;2023-02-02T01:26:48;98898.75;;;4.01;89.04
12799;BME280;19250;42.646;26.980;2023-02-02T01:29:15;98905.84;;;3.89;90.45
12799;BME280;19250;42.646;26.980;2023-02-02T01:31:43;98901.78;;;3.96;91.38
12799;BME280;19250;42.646;26.980;2023-02-02T01:34:10;98896.84;;;3.80;94.22
12799;BME280;19250;42.646;26.980;2023-02-02T01:36:37;98899.59;;;3.57;98.88
12799;BME280;19250;42.646;26.980;2023-02-02T01:39:06;98849.94;;;3.28;100.00
12799;BME280;19250;42.646;26.980;2023-02-02T01:41:33;98898.25;;;3.62;100.00
12799;BME280;19250;42.646;26.980;2023-02-02T01:44:02;98903.25;;;3.43;100.00
12799;BME280;19250;42.646;26.980;2023-02-02T01:46:31;98893.00;;;3.73;100.00
12799;BME280;19250;42.646;26.980;2023-02-02T01:49:02;98895.28;;;3.78;100.00
12799;BME280;19250;42.646;26.980;2023-02-02T01:51:36;98898.28;;;4.07;99.08
12799;BME280;19250;42.646;26.980;2023-02-02T01:54:08;98873.94;;;4.14;96.85
12799;BME280;19250;42.646;26.980;2023-02-02T01:56:41;98910.16;;;4.12;98.50
12799;BME280;19250;42.646;26.980;2023-02-02T01:59:11;98881.50;;;3.74;100.00
12799;BME280;19250;42.646;26.980;2023-02-02T02:01:40;98928.38;;;3.82;100.00
12799;BME280;19250;42.646;26.980;2023-02-02T02:04:08;98924.88;;;3.70;100.00
12799;BME280;19250;42.646;26.980;2023-02-02T02:06:36;98925.75;;;3.82;100.00
12799;BME280;19250;42.646;26.980;2023-02-02T02:09:06;98920.72;;;3.90;100.00
12799;BME280;19250;42.646;26.980;2023-02-02T02:11:34;98858.97;;;3.48;100.00
12799;BME280;19250;42.646;26.980;2023-02-02T02:14:04;98813.50;;;3.11;100.00
12799;BME280;19250;42.646;26.980;2023-02-02T02:17:12;98872.03;;;3.72;100.00
12799;BME280;19250;42.646;26.980;2023-02-02T02:20:02;98901.06;;;3.94;99.64
12799;BME280;19250;42.646;26.980;2023-02-02T02:26:26;98892.41;;;3.81;100.00
12799;BME280;19250;42.646;26.980;2023-02-02T02:32:16;98890.03;;;3.78;100.00
12799;BME280;19250;42.646;26.980;2023-02-02T02:34:52;98900.56;;;3.67;100.00
12799;BME280;19250;42.646;26.980;2023-02-02T02:37:31;98909.28;;;3.56;100.00
12799;BME280;19250;42.646;26.980;2023-02-02T02:40:05;98912.13;;;3.42;100.00
12799;BME280;19250;42.646;26.980;2023-02-02T02:42:38;98895.09;;;3.24;100.00
12799;BME280;19250;42.646;26.980;2023-02-02T02:45:08;98876.72;;;3.11;100.00
12799;BME280;19250;42.646;26.980;2023-02-02T02:47:39;98885.78;;;3.07;100.00
12799;BME280;19250;42.646;26.980;2023-02-02T02:50:08;98873.66;;;2.94;100.00
12799;BME280;19250;42.646;26.980;2023-02-02T02:52:36;98882.59;;;3.15;100.00
12799;BME280;19250;42.646;26.980;2023-02-02T02:55:04;98881.16;;;3.11;100.00
12799;BME280;19250;42.646;26.980;2023-02-02T02:57:57;98789.09;;;2.40;100.00
12799;BME280;19250;42.646;26.980;2023-02-02T03:00:41;98872.97;;;3.03;100.00
12799;BME280;19250;42.646;26.980;2023-02-02T03:03:18;98860.16;;;2.98;100.00
12799;BME280;19250;42.646;26.980;2023-02-02T03:05:53;98872.50;;;3.09;100.00
12799;BME280;19250;42.646;26.980;2023-02-02T03:08:26;98854.53;;;3.03;100.00
12799;BME280;19250;42.646;26.980;2023-02-02T03:10:55;98845.34;;;3.08;100.00
12799;BME280;19250;42.646;26.980;2023-02-02T03:13:25;98849.69;;;3.20;100.00
12799;BME280;19250;42.646;26.980;2023-02-02T03:15:53;98882.31;;;3.42;100.00
12799;BME280;19250;42.646;26.980;2023-02-02T03:18:24;98878.88;;;3.63;100.00
12799;BME280;19250;42.646;26.980;2023-02-02T03:20:53;98893.97;;;3.72;100.00
12799;BME280;19250;42.646;26.980;2023-02-02T03:23:20;98883.19;;;3.75;100.00
12799;BME280;19250;42.646;26.980;2023-02-02T03:25:48;98888.09;;;4.02;100.00
12799;BME280;19250;42.646;26.980;2023-02-02T03:28:16;98877.28;;;4.16;100.00
12799;BME280;19250;42.646;26.980;2023-02-02T03:30:45;98872.69;;;4.52;100.00
12799;BME280;19250;42.646;26.980;2023-02-02T03:33:13;98875.47;;;4.39;100.00
12799;BME280;19250;42.646;26.980;2023-02-02T03:35:42;98868.81;;;4.56;100.00
12799;BME280;19250;42.646;26.980;2023-02-02T03:38:10;98874.81;;;4.58;100.00
12799;BME280;19250;42.646;26.980;2023-02-02T03:40:37;98868.81;;;4.56;100.00
12799;BME280;19250;42.646;26.980;2023-02-02T03:43:05;98850.94;;;4.59;100.00
12799;BME280;19250;42.646;26.980;2023-02-02T03:45:32;98858.16;;;4.57;100.00
12799;BME280;19250;42.646;26.980;2023-02-02T03:48:03;98844.19;;;4.23;100.00
12799;BME280;19250;42.646;26.980;2023-02-02T03:50:30;98864.28;;;4.47;100.00
12799;BME280;19250;42.646;26.980;2023-02-02T03:52:59;98864.63;;;4.53;100.00
12799;BME280;19250;42.646;26.980;2023-02-02T03:55:26;98857.50;;;4.65;100.00
12799;BME280;19250;42.646;26.980;2023-02-02T03:57:53;98856.72;;;4.85;100.00
12799;BME280;19250;42.646;26.980;2023-02-02T04:00:21;98857.25;;;5.00;100.00
12799;BME280;19250;42.646;26.980;2023-02-02T04:02:48;98853.91;;;4.66;100.00
12799;BME280;19250;42.646;26.980;2023-02-02T04:05:16;98854.09;;;4.85;100.00
12799;BME280;19250;42.646;26.980;2023-02-02T04:07:43;98851.31;;;4.55;100.00
12799;BME280;19250;42.646;26.980;2023-02-02T04:10:12;98851.22;;;4.45;100.00
12799;BME280;19250;42.646;26.980;2023-02-02T04:12:39;98851.69;;;4.50;100.00
12799;BME280;19250;42.646;26.980;2023-02-02T04:15:07;98849.44;;;4.46;100.00
12799;BME280;19250;42.646;26.980;2023-02-02T04:17:34;98806.59;;;4.74;100.00
12799;BME280;19250;42.646;26.980;2023-02-02T04:20:02;98843.97;;;5.11;99.56
12799;BME280;19250;42.646;26.980;2023-02-02T04:22:29;98850.44;;;5.18;99.89
12799;BME280;19250;42.646;26.980;2023-02-02T04:24:56;98852.22;;;4.97;100.00
12799;BME280;19250;42.646;26.980;2023-02-02T04:27:25;98847.88;;;4.43;100.00
12799;BME280;19250;42.646;26.980;2023-02-02T04:29:52;98845.63;;;4.16;100.00
12799;BME280;19250;42.646;26.980;2023-02-02T04:32:20;98846.78;;;4.34;100.00
12799;BME280;19250;42.646;26.980;2023-02-02T04:34:47;98766.81;;;3.47;100.00
12799;BME280;19250;42.646;26.980;2023-02-02T04:37:14;98847.03;;;4.31;100.00
12799;BME280;19250;42.646;26.980;2023-02-02T04:39:41;98853.19;;;4.21;100.00
12799;BME280;19250;42.646;26.980;2023-02-02T04:42:08;98842.00;;;4.39;100.00
12799;BME280;19250;42.646;26.980;2023-02-02T04:44:37;98859.38;;;4.42;100.00
12799;BME280;19250;42.646;26.980;2023-02-02T04:47:04;98855.44;;;4.36;100.00
12799;BME280;19250;42.646;26.980;2023-02-02T04:49:31;98855.44;;;4.36;100.00
12799;BME280;19250;42.646;26.980;2023-02-02T04:51:58;98857.09;;;4.49;100.00
12799;BME280;19250;42.646;26.980;2023-02-02T04:54:26;98863.53;;;4.56;100.00
12799;BME280;19250;42.646;26.980;2023-02-02T04:56:53;98862.47;;;4.58;100.00
12799;BME280;19250;42.646;26.980;2023-02-02T04:59:20;98866.75;;;4.70;100.00
12799;BME280;19250;42.646;26.980;2023-02-02T05:01:49;98868.63;;;4.36;100.00
12799;BME280;19250;42.646;26.980;2023-02-02T05:04:16;98882.69;;;4.37;100.00
12799;BME280;19250;42.646;26.980;2023-02-02T05:06:43;98876.63;;;4.57;100.00
12799;BME280;19250;42.646;26.980;2023-02-02T05:09:11;98865.44;;;4.22;100.00
12799;BME280;19250;42.646;26.980;2023-02-02T05:11:39;98873.91;;;4.25;100.00
12799;BME280;19250;42.646;26.980;2023-02-02T05:14:09;98864.41;;;4.45;100.00
12799;BME280;19250;42.646;26.980;2023-02-02T05:16:36;98867.19;;;4.32;100.00
12799;BME280;19250;42.646;26.980;2023-02-02T05:19:05;98865.97;;;4.48;100.00
12799;BME280;19250;42.646;26.980;2023-02-02T05:21:32;98877.47;;;4.58;100.00
12799;BME280;19250;42.646;26.980;2023-02-02T05:23:59;98875.75;;;4.14;100.00
12799;BME280;19250;42.646;26.980;2023-02-02T05:26:28;98878.00;;;4.29;100.00
12799;BME280;19250;42.646;26.980;2023-02-02T05:28:55;98879.94;;;4.16;100.00
12799;BME280;19250;42.646;26.980;2023-02-02T05:31:22;98884.84;;;4.10;100.00
12799;BME280;19250;42.646;26.980;2023-02-02T05:33:50;98887.88;;;3.94;100.00
12799;BME280;19250;42.646;26.980;2023-02-02T05:36:18;98882.09;;;3.89;100.00
12799;BME280;19250;42.646;26.980;2023-02-02T05:38:45;98888.34;;;3.88;100.00
12799;BME280;19250;42.646;26.980;2023-02-02T05:41:13;98879.22;;;4.14;100.00
12799;BME280;19250;42.646;26.980;2023-02-02T05:43:40;98878.25;;;4.04;100.00
12799;BME280;19250;42.646;26.980;2023-02-02T05:46:07;98884.38;;;3.82;100.00
12799;BME280;19250;42.646;26.980;2023-02-02T05:48:34;98897.69;;;3.81;100.00
12799;BME280;19250;42.646;26.980;2023-02-02T05:51:04;98892.03;;;3.74;100.00
12799;BME280;19250;42.646;26.980;2023-02-02T05:53:33;98893.59;;;3.77;100.00
12799;BME280;19250;42.646;26.980;2023-02-02T05:56:01;98808.63;;;3.18;100.00
12799;BME280;19250;42.646;26.980;2023-02-02T05:58:28;98897.69;;;3.70;100.00
12799;BME280;19250;42.646;26.980;2023-02-02T06:00:55;98905.22;;;3.85;100.00
12799;BME280;19250;42.646;26.980;2023-02-02T06:03:23;98900.81;;;3.64;100.00
12799;BME280;19250;42.646;26.980;2023-02-02T06:05:50;98902.25;;;3.90;100.00
12799;BME280;19250;42.646;26.980;2023-02-02T06:08:17;98912.81;;;4.12;100.00
12799;BME280;19250;42.646;26.980;2023-02-02T06:10:46;98917.81;;;4.37;100.00
12799;BME280;19250;42.646;26.980;2023-02-02T06:13:15;98913.00;;;4.54;100.00
12799;BME280;19250;42.646;26.980;2023-02-02T06:15:42;98910.69;;;5.03;97.55
12799;BME280;19250;42.646;26.980;2023-02-02T06:18:10;98919.91;;;5.40;94.28
12799;BME280;19250;42.646;26.980;2023-02-02T06:20:37;98926.72;;;5.64;89.92
12799;BME280;19250;42.646;26.980;2023-02-02T06:23:04;98925.97;;;5.52;90.88
12799;BME280;19250;42.646;26.980;2023-02-02T06:25:32;98926.22;;;5.28;90.59
12799;BME280;19250;42.646;26.980;2023-02-02T06:28:01;98926.22;;;5.28;90.75
12799;BME280;19250;42.646;26.980;2023-02-02T06:30:28;98933.31;;;5.48;89.27
12799;BME280;19250;42.646;26.980;2023-02-02T06:32:58;98934.59;;;5.54;87.67
12799;BME280;19250;42.646;26.980;2023-02-02T06:35:25;98928.09;;;5.37;88.75
12799;BME280;19250;42.646;26.980;2023-02-02T06:37:52;98931.38;;;4.98;91.20
12799;BME280;19250;42.646;26.980;2023-02-02T06:40:19;98935.91;;;5.07;90.46
12799;BME280;19250;42.646;26.980;2023-02-02T06:42:47;98942.00;;;5.08;91.33
12799;BME280;19250;42.646;26.980;2023-02-02T06:45:15;98854.00;;;4.32;93.24
12799;BME280;19250;42.646;26.980;2023-02-02T06:47:42;98927.25;;;4.62;94.89
12799;BME280;19250;42.646;26.980;2023-02-02T06:50:10;98940.38;;;4.42;97.60
12799;BME280;19250;42.646;26.980;2023-02-02T06:52:38;98930.91;;;4.28;99.45
12799;BME280;19250;42.646;26.980;2023-02-02T06:55:06;98938.69;;;4.29;99.93
12799;BME280;19250;42.646;26.980;2023-02-02T06:57:33;98840.63;;;3.80;99.03
12799;BME280;19250;42.646;26.980;2023-02-02T07:00:00;98946.13;;;4.58;98.16
12799;BME280;19250;42.646;26.980;2023-02-02T07:02:29;98943.38;;;4.48;98.59
12799;BME280;19250;42.646;26.980;2023-02-02T07:04:56;98946.09;;;4.47;99.16
12799;BME280;19250;42.646;26.980;2023-02-02T07:07:24;98840.84;;;4.21;96.34
12799;BME280;19250;42.646;26.980;2023-02-02T07:09:51;98949.88;;;5.50;91.12
12799;BME280;19250;42.646;26.980;2023-02-02T07:12:18;98950.38;;;4.92;93.48
12799;BME280;19250;42.646;26.980;2023-02-02T07:14:45;98962.03;;;5.21;90.54
12799;BME280;19250;42.646;26.980;2023-02-02T07:17:13;98962.53;;;5.15;91.63
12799;BME280;19250;42.646;26.980;2023-02-02T07:19:41;98964.94;;;5.39;90.71
12799;BME280;19250;42.646;26.980;2023-02-02T07:22:09;98960.69;;;5.47;87.71
12799;BME280;19250;42.646;26.980;2023-02-02T07:24:36;98953.03;;;5.44;87.46
12799;BME280;19250;42.646;26.980;2023-02-02T07:27:03;98963.91;;;5.30;88.00
12799;BME280;19250;42.646;26.980;2023-02-02T07:29:30;98965.47;;;5.33;87.93
12799;BME280;19250;42.646;26.980;2023-02-02T07:31:58;98969.41;;;5.38;85.96
12799;BME280;19250;42.646;26.980;2023-02-02T07:34:25;98974.13;;;5.56;85.68
12799;BME280;19250;42.646;26.980;2023-02-02T07:36:53;98971.09;;;5.39;85.71
12799;BME280;19250;42.646;26.980;2023-02-02T07:39:21;98974.41;;;5.53;85.33
12799;BME280;19250;42.646;26.980;2023-02-02T07:41:48;98860.09;;;5.08;81.43
12799;BME280;19250;42.646;26.980;2023-02-02T07:44:15;98981.72;;;5.81;81.29
12799;BME280;19250;42.646;26.980;2023-02-02T07:46:44;98979.06;;;6.01;79.06
12799;BME280;19250;42.646;26.980;2023-02-02T07:49:13;98887.13;;;5.53;81.03
12799;BME280;19250;42.646;26.980;2023-02-02T07:51:41;98977.72;;;6.07;79.54
12799;BME280;19250;42.646;26.980;2023-02-02T07:54:09;98966.44;;;6.35;78.33
12799;BME280;19250;42.646;26.980;2023-02-02T07:56:37;98966.16;;;6.38;78.92
12799;BME280;19250;42.646;26.980;2023-02-02T07:59:04;98965.66;;;6.54;76.39
12799;BME280;19250;42.646;26.980;2023-02-02T08:01:32;98963.50;;;6.78;72.63
12799;BME280;19250;42.646;26.980;2023-02-02T08:03:59;98961.63;;;7.09;72.42
12799;BME280;19250;42.646;26.980;2023-02-02T08:06:29;98922.88;;;7.83;68.31
12799;BME280;19250;42.646;26.980;2023-02-02T08:08:57;98944.69;;;8.43;63.90
12799;BME280;19250;42.646;26.980;2023-02-02T08:11:27;98949.84;;;8.44;61.79
12799;BME280;19250;42.646;26.980;2023-02-02T08:13:56;98949.16;;;8.42;61.92
12799;BME280;19250;42.646;26.980;2023-02-02T08:16:24;98834.63;;;7.16;64.43
12799;BME280;19250;42.646;26.980;2023-02-02T08:18:51;98941.84;;;8.44;64.29
12799;BME280;19250;42.646;26.980;2023-02-02T08:21:19;98949.41;;;8.49;62.37
12799;BME280;19250;42.646;26.980;2023-02-02T08:23:46;98953.78;;;8.40;62.93
12799;BME280;19250;42.646;26.980;2023-02-02T08:26:16;98808.28;;;7.70;63.20
12799;BME280;19250;42.646;26.980;2023-02-02T08:28:47;98967.13;;;8.11;63.56
12799;BME280;19250;42.646;26.980;2023-02-02T08:31:17;98947.19;;;8.44;61.92
12799;BME280;19250;42.646;26.980;2023-02-02T08:33:46;98959.25;;;8.19;62.66
12799;BME280;19250;42.646;26.980;2023-02-02T08:36:15;98955.50;;;8.22;61.49
12799;BME280;19250;42.646;26.980;2023-02-02T08:38:42;98959.84;;;8.13;62.45
12799;BME280;19250;42.646;26.980;2023-02-02T08:41:12;98963.84;;;8.73;61.00
12799;BME280;19250;42.646;26.980;2023-02-02T08:43:39;98968.75;;;8.96;58.12
12799;BME280;19250;42.646;26.980;2023-02-02T08:46:09;98980.28;;;8.87;55.13
12799;BME280;19250;42.646;26.980;2023-02-02T08:48:37;98967.56;;;8.53;55.83
12799;BME280;19250;42.646;26.980;2023-02-02T08:51:05;98971.81;;;8.73;57.25
12799;BME280;19250;42.646;26.980;2023-02-02T08:53:33;98976.66;;;8.78;54.91
12799;BME280;19250;42.646;26.980;2023-02-02T08:56:01;98975.59;;;8.98;54.42
12799;BME280;19250;42.646;26.980;2023-02-02T08:58:30;98972.44;;;8.85;54.54
12799;BME280;19250;42.646;26.980;2023-02-02T09:01:04;98978.00;;;8.64;58.16
12799;BME280;19250;42.646;26.980;2023-02-02T09:03:33;98973.88;;;8.80;59.56
12799;BME280;19250;42.646;26.980;2023-02-02T09:06:04;98973.00;;;8.89;60.34
12799;BME280;19250;42.646;26.980;2023-02-02T09:08:31;98970.41;;;8.97;55.89
12799;BME280;19250;42.646;26.980;2023-02-02T09:11:03;98982.44;;;8.73;59.06
12799;BME280;19250;42.646;26.980;2023-02-02T09:13:30;98981.56;;;8.55;62.34
12799;BME280;19250;42.646;26.980;2023-02-02T09:16:01;98976.13;;;8.74;63.51
12799;BME280;19250;42.646;26.980;2023-02-02T09:18:29;98968.50;;;8.25;64.81
12799;BME280;19250;42.646;26.980;2023-02-02T09:21:00;98973.03;;;7.96;66.38
12799;BME280;19250;42.646;26.980;2023-02-02T09:23:28;98961.47;;;8.43;66.68
12799;BME280;19250;42.646;26.980;2023-02-02T09:25:57;98957.44;;;8.20;66.98
12799;BME280;19250;42.646;26.980;2023-02-02T09:28:24;98957.34;;;8.86;63.32
12799;BME280;19250;42.646;26.980;2023-02-02T09:30:51;98962.91;;;8.92;60.21
12799;BME280;19250;42.646;26.980;2023-02-02T09:33:18;98948.25;;;9.06;58.42
12799;BME280;19250;42.646;26.980;2023-02-02T09:35:45;98957.28;;;9.13;58.76
12799;BME280;19250;42.646;26.980;2023-02-02T09:38:14;98959.34;;;9.19;58.40
12799;BME280;19250;42.646;26.980;2023-02-02T09:40:41;98948.94;;;9.43;56.17
12799;BME280;19250;42.646;26.980;2023-02-02T09:43:19;98945.44;;;8.90;55.77
12799;BME280;19250;42.646;26.980;2023-02-02T09:45:53;98939.75;;;9.38;55.08
12799;BME280;19250;42.646;26.980;2023-02-02T09:48:29;98934.88;;;9.94;52.49
12799;BME280;19250;42.646;26.980;2023-02-02T09:51:01;98932.38;;;9.93;51.39
12799;BME280;19250;42.646;26.980;2023-02-02T09:53:41;98925.88;;;9.95;51.03
12799;BME280;19250;42.646;26.980;2023-02-02T09:56:15;98923.78;;;10.07;50.78
12799;BME280;19250;42.646;26.980;2023-02-02T09:58:47;98918.69;;;9.44;53.21
12799;BME280;19250;42.646;26.980;2023-02-02T10:01:18;98907.22;;;9.69;53.72
12799;BME280;19250;42.646;26.980;2023-02-02T10:03:56;98900.59;;;9.73;52.60
12799;BME280;19250;42.646;26.980;2023-02-02T10:06:35;98909.13;;;10.03;51.50
12799;BME280;19250;42.646;26.980;2023-02-02T10:09:15;98904.47;;;10.05;50.36
12799;BME280;19250;42.646;26.980;2023-02-02T10:11:51;98902.59;;;10.15;49.87
12799;BME280;19250;42.646;26.980;2023-02-02T10:14:24;98890.81;;;10.00;50.32
12799;BME280;19250;42.646;26.980;2023-02-02T10:16:54;98890.53;;;10.36;49.97
12799;BME280;19250;42.646;26.980;2023-02-02T10:19:23;98896.19;;;10.33;50.14
12799;BME280;19250;42.646;26.980;2023-02-02T10:21:59;98893.31;;;10.69;50.21
12799;BME280;19250;42.646;26.980;2023-02-02T10:24:31;98852.78;;;10.57;49.21
12799;BME280;19250;42.646;26.980;2023-02-02T10:27:02;98892.78;;;10.57;48.24
12799;BME280;19250;42.646;26.980;2023-02-02T10:29:41;98890.84;;;10.33;47.83
12799;BME280;19250;42.646;26.980;2023-02-02T10:32:15;98888.59;;;11.37;46.36
12799;BME280;19250;42.646;26.980;2023-02-02T10:34:59;98876.84;;;12.88;43.21
12799;BME280;19250;42.646;26.980;2023-02-02T10:37:32;98854.00;;;12.78;41.08
12799;BME280;19250;42.646;26.980;2023-02-02T10:40:14;98885.78;;;12.73;40.19
12799;BME280;19250;42.646;26.980;2023-02-02T10:42:55;98879.53;;;13.42;39.89
12799;BME280;19250;42.646;26.980;2023-02-02T10:45:44;98824.06;;;13.65;38.53
12799;BME280;19250;42.646;26.980;2023-02-02T10:48:16;98885.63;;;14.40;38.33
12799;BME280;19250;42.646;26.980;2023-02-02T10:50:47;98874.25;;;14.38;37.36
12799;BME280;19250;42.646;26.980;2023-02-02T10:53:15;98867.94;;;13.64;38.32
12799;BME280;19250;42.646;26.980;2023-02-02T10:55:48;98867.19;;;14.22;36.91
12799;BME280;19250;42.646;26.980;2023-02-02T10:58:22;98863.44;;;14.82;35.75
12799;BME280;19250;42.646;26.980;2023-02-02T11:00:54;98870.41;;;14.76;35.76
12799;BME280;19250;42.646;26.980;2023-02-02T11:03:25;98867.94;;;14.96;36.11
12799;BME280;19250;42.646;26.980;2023-02-02T11:05:53;98871.81;;;14.28;36.16
12799;BME280;19250;42.646;26.980;2023-02-02T11:08:39;98866.22;;;14.88;36.49
12799;BME280;19250;42.646;26.980;2023-02-02T11:11:22;98866.81;;;14.69;35.31
12799;BME280;19250;42.646;26.980;2023-02-02T11:13:53;98863.25;;;15.40;34.35
12799;BME280;19250;42.646;26.980;2023-02-02T11:16:25;98845.41;;;16.09;33.67
12799;BME280;19250;42.646;26.980;2023-02-02T11:18:53;98856.16;;;14.76;35.24
12799;BME280;19250;42.646;26.980;2023-02-02T11:21:23;98861.06;;;14.72;34.22
12799;BME280;19250;42.646;26.980;2023-02-02T11:23:58;98849.19;;;15.59;33.63
12799;BME280;19250;42.646;26.980;2023-02-02T11:26:41;98846.44;;;15.53;33.15
12799;BME280;19250;42.646;26.980;2023-02-02T11:29:14;98808.25;;;13.70;35.36
12799;BME280;19250;42.646;26.980;2023-02-02T11:31:42;98849.03;;;13.43;35.69
12799;BME280;19250;42.646;26.980;2023-02-02T11:34:16;98844.38;;;12.91;37.07
12799;BME280;19250;42.646;26.980;2023-02-02T11:37:10;98841.22;;;12.65;37.75
12799;BME280;19250;42.646;26.980;2023-02-02T11:39:38;98847.06;;;12.61;38.01
12799;BME280;19250;42.646;26.980;2023-02-02T11:42:12;98844.25;;;12.54;37.93
12799;BME280;19250;42.646;26.980;2023-02-02T11:44:42;98830.84;;;13.16;36.75
12799;BME280;19250;42.646;26.980;2023-02-02T11:47:18;98836.38;;;12.61;37.28
12799;BME280;19250;42.646;26.980;2023-02-02T11:49:46;98844.44;;;13.14;36.50
12799;BME280;19250;42.646;26.980;2023-02-02T11:52:18;98833.97;;;13.79;35.77
12799;BME280;19250;42.646;26.980;2023-02-02T11:54:47;98829.81;;;13.91;35.09
12799;BME280;19250;42.646;26.980;2023-02-02T11:57:19;98826.22;;;14.13;34.62
12799;BME280;19250;42.646;26.980;2023-02-02T11:59:48;98811.44;;;14.83;33.70
12799;BME280;19250;42.646;26.980;2023-02-02T12:02:27;98802.28;;;14.41;33.63
12799;BME280;19250;42.646;26.980;2023-02-02T12:05:19;98788.97;;;14.69;33.86
12799;BME280;19250;42.646;26.980;2023-02-02T12:07:58;98813.03;;;13.97;33.92
12799;BME280;19250;42.646;26.980;2023-02-02T12:10:28;98792.38;;;13.83;34.52
12799;BME280;19250;42.646;26.980;2023-02-02T12:13:04;98780.56;;;14.22;34.00
12799;BME280;19250;42.646;26.980;2023-02-02T12:15:41;98779.88;;;14.49;33.64
12799;BME280;19250;42.646;26.980;2023-02-02T12:18:30;98772.81;;;14.62;32.87
12799;BME280;19250;42.646;26.980;2023-02-02T12:21:05;98775.44;;;14.27;32.51
12799;BME280;19250;42.646;26.980;2023-02-02T12:23:58;98681.97;;;13.73;33.52
12799;BME280;19250;42.646;26.980;2023-02-02T12:26:30;98785.72;;;13.50;34.36
12799;BME280;19250;42.646;26.980;2023-02-02T12:32:05;98778.75;;;14.58;33.72
12799;BME280;19250;42.646;26.980;2023-02-02T12:34:44;98781.28;;;14.30;33.81
12799;BME280;19250;42.646;26.980;2023-02-02T12:37:24;98782.47;;;14.13;33.10
12799;BME280;19250;42.646;26.980;2023-02-02T12:40:06;98769.84;;;13.11;35.03
12799;BME280;19250;42.646;26.980;2023-02-02T12:42:49;98783.63;;;13.89;34.41
12799;BME280;19250;42.646;26.980;2023-02-02T12:45:57;98768.94;;;13.33;34.50
12799;BME280;19250;42.646;26.980;2023-02-02T12:51:31;98732.06;;;14.95;32.64
12799;BME280;19250;42.646;26.980;2023-02-02T12:56:59;98761.16;;;13.90;33.19
12799;BME280;19250;42.646;26.980;2023-02-02T13:02:27;98769.63;;;13.35;34.15
12799;BME280;19250;42.646;26.980;2023-02-02T13:05:07;98783.31;;;13.55;34.50
12799;BME280;19250;42.646;26.980;2023-02-02T13:07:41;98771.47;;;13.12;34.39
12799;BME280;19250;42.646;26.980;2023-02-02T13:10:17;98766.59;;;12.47;35.90
12799;BME280;19250;42.646;26.980;2023-02-02T13:12:51;98769.16;;;12.86;35.89
12799;BME280;19250;42.646;26.980;2023-02-02T13:15:21;98770.16;;;12.85;35.89
12799;BME280;19250;42.646;26.980;2023-02-02T13:17:52;98767.50;;;12.63;36.77
12799;BME280;19250;42.646;26.980;2023-02-02T13:20:25;98763.41;;;13.20;36.27
12799;BME280;19250;42.646;26.980;2023-02-02T13:22:57;98758.56;;;14.11;34.70
12799;BME280;19250;42.646;26.980;2023-02-02T13:25:28;98748.53;;;15.13;34.10
12799;BME280;19250;42.646;26.980;2023-02-02T13:27:58;98671.03;;;14.82;33.43
12799;BME280;19250;42.646;26.980;2023-02-02T13:30:29;98749.84;;;14.39;33.62